sensor_id;sensor_type;location;lat;lon;timestamp;temperature;humidity
9414;DHT22;4746;35.664;139.738;2023-04-03T00:01:18;15.20;99.90
9414;DHT22;4746;35.664;139.738;2023-04-03T00:03:46;15.10;99.90
9414;DHT22;4746;35.664;139.738;2023-04-03T00:06:13;15.00;99.90
9414;DHT22;4746;35.664;139.738;2023-04-03T00:08:44;15.10;99.90
9414;DHT22;4746;35.664;139.738;2023-04-03T00:11:11;15.10;99.90
9414;DHT22;4746;35.664;139.738;2023-04-03T00:13:39;15.10;99.90
9414;DHT22;4746;35.664;139.738;2023-04-03T00:16:08;15.10;99.90
9414;DHT22;4746;35.664;139.738;2023-04-03T00:18:38;15.10;99.90
9414;DHT22;4746;35.664;139.738;2023-04-03T00:21:07;15.10;99.90
9414;DHT22;4746;35.664;139.738;2023-04-03T00:23:36;15.10;99.90
9414;DHT22;4746;35.664;139.738;2023-04-03T00:26:04;15.10;99.90
9414;DHT22;4746;35.664;139.738;2023-04-03T00:28:32;15.10;99.90
9414;DHT22;4746;35.664;139.738;2023-04-03T00:30:59;15.10;99.90
9414;DHT22;4746;35.664;139.738;2023-04-03T00:33:27;15.10;99.90
9414;DHT22;4746;35.664;139.738;2023-04-03T00:35:55;15.10;99.90
9414;DHT22;4746;35.664;139.738;2023-04-03T00:38:22;15.10;99.90
9414;DHT22;4746;35.664;139.738;2023-04-03T00:40:50;15.20;99.90
9414;DHT22;4746;35.664;139.738;2023-04-03T00:43:23;15.20;99.90
9414;DHT22;4746;35.664;139.738;2023-04-03T00:45:54;15.20;99.90
9414;DHT22;4746;35.664;139.738;2023-04-03T00:48:30;15.20;99.90
9414;DHT22;4746;35.664;139.738;2023-04-03T00:51:04;15.30;99.90
9414;DHT22;4746;35.664;139.738;2023-04-03T00:53:44;15.40;99.90
9414;DHT22;4746;35.664;139.738;2023-04-03T00:56:19;15.50;99.90
9414;DHT22;4746;35.664;139.738;2023-04-03T00:59:04;15.60;99.90
9414;DHT22;4746;35.664;139.738;2023-04-03T01:01:37;15.70;99.90
9414;DHT22;4746;35.664;139.738;2023-04-03T01:04:05;15.70;99.90
9414;DHT22;4746;35.664;139.738;2023-04-03T01:06:53;15.80;99.90
9414;DHT22;4746;35.664;139.738;2023-04-03T01:09:25;15.90;99.90
9414;DHT22;4746;35.664;139.738;2023-04-03T01:12:12;15.90;99.90
9414;DHT22;4746;35.664;139.738;2023-04-03T01:14:46;15.90;99.90
9414;DHT22;4746;35.664;139.738;2023-04-03T01:23:21;15.90;99.90
9414;DHT22;4746;35.664;139.738;2023-04-03T01:26:04;15.90;99.90
9414;DHT22;4746;35.664;139.738;2023-04-03T01:28:34;16.00;99.90
9414;DHT22;4746;35.664;139.738;2023-04-03T01:34:30;16.00;99.90
9414;DHT22;4746;35.664;139.738;2023-04-03T01:36:58;16.00;99.90
9414;DHT22;4746;35.664;139.738;2023-04-03T01:39:25;16.00;99.90
9414;DHT22;4746;35.664;139.738;2023-04-03T01:41:53;16.00;99.90
9414;DHT22;4746;35.664;139.738;2023-04-03T01:44:23;16.10;99.90
9414;DHT22;4746;35.664;139.738;2023-04-03T01:46:50;16.00;99.90
9414;DHT22;4746;35.664;139.738;2023-04-03T01:49:18;16.10;99.90
9414;DHT22;4746;35.664;139.738;2023-04-03T01:51:45;16.00;99.90
9414;DHT22;4746;35.664;139.738;2023-04-03T01:54:13;16.00;99.90
9414;DHT22;4746;35.664;139.738;2023-04-03T01:56:40;16.10;99.90
9414;DHT22;4746;35.664;139.738;2023-04-03T01:59:08;16.20;99.90
9414;DHT22;4746;35.664;139.738;2023-04-03T02:01:36;16.40;99.90
9414;DHT22;4746;35.664;139.738;2023-04-03T02:04:03;16.60;99.90
9414;DHT22;4746;35.664;139.738;2023-04-03T02:06:31;16.80;99.90
9414;DHT22;4746;35.664;139.738;2023-04-03T02:09:02;16.90;99.80
9414;DHT22;4746;35.664;139.738;2023-04-03T02:11:30;16.90;98.60
9414;DHT22;4746;35.664;139.738;2023-04-03T02:14:01;16.90;98.70
9414;DHT22;4746;35.664;139.738;2023-04-03T02:16:28;16.90;98.00
9414;DHT22;4746;35.664;139.738;2023-04-03T02:18:57;16.90;97.70
9414;DHT22;4746;35.664;139.738;2023-04-03T02:21:24;16.80;97.00
9414;DHT22;4746;35.664;139.738;2023-04-03T02:23:52;16.80;97.40
9414;DHT22;4746;35.664;139.738;2023-04-03T02:26:19;16.80;96.20
9414;DHT22;4746;35.664;139.738;2023-04-03T02:28:47;16.70;96.80
9414;DHT22;4746;35.664;139.738;2023-04-03T02:31:15;16.90;97.00
9414;DHT22;4746;35.664;139.738;2023-04-03T02:33:42;16.90;96.50
9414;DHT22;4746;35.664;139.738;2023-04-03T02:36:10;17.10;96.30
9414;DHT22;4746;35.664;139.738;2023-04-03T02:38:38;17.10;95.30
9414;DHT22;4746;35.664;139.738;2023-04-03T02:41:08;17.20;95.20
9414;DHT22;4746;35.664;139.738;2023-04-03T02:43:37;17.20;95.10
9414;DHT22;4746;35.664;139.738;2023-04-03T02:46:05;17.20;94.30
9414;DHT22;4746;35.664;139.738;2023-04-03T02:48:33;17.20;94.70
9414;DHT22;4746;35.664;139.738;2023-04-03T02:51:01;17.20;93.10
9414;DHT22;4746;35.664;139.738;2023-04-03T02:53:29;17.10;93.10
9414;DHT22;4746;35.664;139.738;2023-04-03T02:55:57;17.20;93.20
9414;DHT22;4746;35.664;139.738;2023-04-03T02:58:24;17.30;92.70
9414;DHT22;4746;35.664;139.738;2023-04-03T03:00:52;17.40;92.40
9414;DHT22;4746;35.664;139.738;2023-04-03T03:03:20;17.50;92.10
9414;DHT22;4746;35.664;139.738;2023-04-03T03:05:48;17.60;91.60
9414;DHT22;4746;35.664;139.738;2023-04-03T03:08:15;17.60;90.50
9414;DHT22;4746;35.664;139.738;2023-04-03T03:10:46;17.70;88.90
9414;DHT22;4746;35.664;139.738;2023-04-03T03:13:13;17.80;87.30
9414;DHT22;4746;35.664;139.738;2023-04-03T03:15:41;17.80;83.00
9414;DHT22;4746;35.664;139.738;2023-04-03T03:18:08;17.80;83.70
9414;DHT22;4746;35.664;139.738;2023-04-03T03:20:36;17.80;84.20
9414;DHT22;4746;35.664;139.738;2023-04-03T03:23:03;18.00;83.70
9414;DHT22;4746;35.664;139.738;2023-04-03T03:25:31;18.10;83.20
9414;DHT22;4746;35.664;139.738;2023-04-03T03:27:58;18.20;80.30
9414;DHT22;4746;35.664;139.738;2023-04-03T03:30:26;18.30;83.40
9414;DHT22;4746;35.664;139.738;2023-04-03T03:32:54;18.40;81.90
9414;DHT22;4746;35.664;139.738;2023-04-03T03:35:21;18.60;80.60
9414;DHT22;4746;35.664;139.738;2023-04-03T03:37:49;18.80;81.50
9414;DHT22;4746;35.664;139.738;2023-04-03T03:40:16;19.10;78.10
9414;DHT22;4746;35.664;139.738;2023-04-03T03:42:44;19.20;77.50
9414;DHT22;4746;35.664;139.738;2023-04-03T03:45:11;19.20;75.20
9414;DHT22;4746;35.664;139.738;2023-04-03T03:47:39;19.60;74.10
9414;DHT22;4746;35.664;139.738;2023-04-03T03:50:07;19.70;71.20
9414;DHT22;4746;35.664;139.738;2023-04-03T03:52:35;19.80;70.00
9414;DHT22;4746;35.664;139.738;2023-04-03T03:55:03;20.00;68.30
9414;DHT22;4746;35.664;139.738;2023-04-03T03:57:31;20.20;68.00
9414;DHT22;4746;35.664;139.738;2023-04-03T03:59:58;20.30;65.00
9414;DHT22;4746;35.664;139.738;2023-04-03T04:02:26;20.20;64.40
9414;DHT22;4746;35.664;139.738;2023-04-03T04:04:54;20.20;63.90
9414;DHT22;4746;35.664;139.738;2023-04-03T04:07:22;20.10;61.00
9414;DHT22;4746;35.664;139.738;2023-04-03T04:09:49;20.10;61.80
9414;DHT22;4746;35.664;139.738;2023-04-03T04:12:17;20.30;63.00
9414;DHT22;4746;35.664;139.738;2023-04-03T04:14:44;20.70;62.80
9414;DHT22;4746;35.664;139.738;2023-04-03T04:17:13;21.00;60.00
9414;DHT22;4746;35.664;139.738;2023-04-03T04:19:41;21.00;57.70
9414;DHT22;4746;35.664;139.738;2023-04-03T04:22:08;21.10;55.80
9414;DHT22;4746;35.664;139.738;2023-04-03T04:24:36;21.10;55.80
9414;DHT22;4746;35.664;139.738;2023-04-03T04:27:03;21.20;54.50
9414;DHT22;4746;35.664;139.738;2023-04-03T04:29:31;21.20;54.20
9414;DHT22;4746;35.664;139.738;2023-04-03T04:32:02;21.40;54.10
9414;DHT22;4746;35.664;139.738;2023-04-03T04:34:31;21.60;52.60
9414;DHT22;4746;35.664;139.738;2023-04-03T04:36:58;22.10;50.70
9414;DHT22;4746;35.664;139.738;2023-04-03T04:39:25;22.10;49.70
9414;DHT22;4746;35.664;139.738;2023-04-03T04:41:53;22.20;50.10
9414;DHT22;4746;35.664;139.738;2023-04-03T04:44:21;22.20;49.80
9414;DHT22;4746;35.664;139.738;2023-04-03T04:46:49;22.50;49.30
9414;DHT22;4746;35.664;139.738;2023-04-03T04:49:16;22.80;48.80
9414;DHT22;4746;35.664;139.738;2023-04-03T04:51:44;23.00;47.00
9414;DHT22;4746;35.664;139.738;2023-04-03T04:54:11;23.20;46.90
9414;DHT22;4746;35.664;139.738;2023-04-03T04:56:38;23.50;46.50
9414;DHT22;4746;35.664;139.738;2023-04-03T04:59:06;23.80;45.10
9414;DHT22;4746;35.664;139.738;2023-04-03T05:01:34;24.10;45.30
9414;DHT22;4746;35.664;139.738;2023-04-03T05:04:02;24.10;44.00
9414;DHT22;4746;35.664;139.738;2023-04-03T05:06:29;24.20;43.90
9414;DHT22;4746;35.664;139.738;2023-04-03T05:08:58;23.90;43.30
9414;DHT22;4746;35.664;139.738;2023-04-03T05:11:26;24.10;42.20
9414;DHT22;4746;35.664;139.738;2023-04-03T05:13:53;24.30;42.30
9414;DHT22;4746;35.664;139.738;2023-04-03T05:16:21;24.80;42.00
9414;DHT22;4746;35.664;139.738;2023-04-03T05:18:48;25.10;40.50
9414;DHT22;4746;35.664;139.738;2023-04-03T05:21:16;25.10;38.90
9414;DHT22;4746;35.664;139.738;2023-04-03T05:23:44;25.20;39.10
9414;DHT22;4746;35.664;139.738;2023-04-03T05:26:12;25.70;38.50
9414;DHT22;4746;35.664;139.738;2023-04-03T05:28:39;26.20;37.40
9414;DHT22;4746;35.664;139.738;2023-04-03T05:31:07;26.60;35.50
9414;DHT22;4746;35.664;139.738;2023-04-03T05:33:35;26.90;35.30
9414;DHT22;4746;35.664;139.738;2023-04-03T05:36:04;27.10;34.60
9414;DHT22;4746;35.664;139.738;2023-04-03T05:38:32;27.50;33.40
9414;DHT22;4746;35.664;139.738;2023-04-03T05:41:00;27.50;32.80
9414;DHT22;4746;35.664;139.738;2023-04-03T05:43:27;27.20;33.20
9414;DHT22;4746;35.664;139.738;2023-04-03T05:45:55;27.50;32.70
9414;DHT22;4746;35.664;139.738;2023-04-03T05:48:23;28.00;32.20
9414;DHT22;4746;35.664;139.738;2023-04-03T05:50:51;28.20;30.70
9414;DHT22;4746;35.664;139.738;2023-04-03T05:53:25;28.80;30.20
9414;DHT22;4746;35.664;139.738;2023-04-03T05:55:56;29.50;28.90
9414;DHT22;4746;35.664;139.738;2023-04-03T05:58:24;29.90;28.70
9414;DHT22;4746;35.664;139.738;2023-04-03T06:00:51;30.70;28.20
9414;DHT22;4746;35.664;139.738;2023-04-03T06:03:19;31.30;27.20
9414;DHT22;4746;35.664;139.738;2023-04-03T06:05:46;31.80;26.20
9414;DHT22;4746;35.664;139.738;2023-04-03T06:08:14;31.50;24.30
9414;DHT22;4746;35.664;139.738;2023-04-03T06:10:41;32.00;24.20
9414;DHT22;4746;35.664;139.738;2023-04-03T06:13:09;31.90;23.70
9414;DHT22;4746;35.664;139.738;2023-04-03T06:15:37;32.30;23.40
9414;DHT22;4746;35.664;139.738;2023-04-03T06:18:06;32.90;23.20
9414;DHT22;4746;35.664;139.738;2023-04-03T06:20:34;33.40;22.30
9414;DHT22;4746;35.664;139.738;2023-04-03T06:23:03;33.80;21.40
9414;DHT22;4746;35.664;139.738;2023-04-03T06:25:32;34.10;20.90
9414;DHT22;4746;35.664;139.738;2023-04-03T06:27:59;34.60;20.30
9414;DHT22;4746;35.664;139.738;2023-04-03T06:30:29;34.90;20.10
9414;DHT22;4746;35.664;139.738;2023-04-03T06:32:57;35.10;19.40
9414;DHT22;4746;35.664;139.738;2023-04-03T06:35:25;35.40;19.40
9414;DHT22;4746;35.664;139.738;2023-04-03T06:37:56;35.10;18.80
9414;DHT22;4746;35.664;139.738;2023-04-03T06:40:25;35.30;18.40
9414;DHT22;4746;35.664;139.738;2023-04-03T06:42:53;35.40;18.50
9414;DHT22;4746;35.664;139.738;2023-04-03T06:45:24;35.50;17.90
9414;DHT22;4746;35.664;139.738;2023-04-03T06:47:52;35.80;17.80
9414;DHT22;4746;35.664;139.738;2023-04-03T06:50:24;35.60;17.60
9414;DHT22;4746;35.664;139.738;2023-04-03T06:52:56;35.50;17.40
9414;DHT22;4746;35.664;139.738;2023-04-03T06:55:30;35.10;17.60
9414;DHT22;4746;35.664;139.738;2023-04-03T06:57:57;35.10;17.80
9414;DHT22;4746;35.664;139.738;2023-04-03T07:00:25;35.10;17.90
9414;DHT22;4746;35.664;139.738;2023-04-03T07:02:53;35.10;17.90
9414;DHT22;4746;35.664;139.738;2023-04-03T07:05:20;35.30;17.70
9414;DHT22;4746;35.664;139.738;2023-04-03T07:07:48;35.40;17.50
9414;DHT22;4746;35.664;139.738;2023-04-03T07:10:16;35.60;17.60
9414;DHT22;4746;35.664;139.738;2023-04-03T07:12:44;35.70;17.40
9414;DHT22;4746;35.664;139.738;2023-04-03T07:15:12;35.50;17.20
9414;DHT22;4746;35.664;139.738;2023-04-03T07:17:40;34.90;17.30
9414;DHT22;4746;35.664;139.738;2023-04-03T07:20:09;34.50;17.40
9414;DHT22;4746;35.664;139.738;2023-04-03T07:22:37;34.40;17.40
9414;DHT22;4746;35.664;139.738;2023-04-03T07:25:05;34.20;17.50
9414;DHT22;4746;35.664;139.738;2023-04-03T07:27:33;33.70;17.80
9414;DHT22;4746;35.664;139.738;2023-04-03T07:30:01;33.80;17.70
9414;DHT22;4746;35.664;139.738;2023-04-03T07:32:29;34.00;18.00
9414;DHT22;4746;35.664;139.738;2023-04-03T07:34:57;33.70;17.70
9414;DHT22;4746;35.664;139.738;2023-04-03T07:37:24;33.50;17.70
9414;DHT22;4746;35.664;139.738;2023-04-03T07:39:52;32.80;17.70
9414;DHT22;4746;35.664;139.738;2023-04-03T07:42:21;32.80;18.00
9414;DHT22;4746;35.664;139.738;2023-04-03T07:44:48;33.00;18.10
9414;DHT22;4746;35.664;139.738;2023-04-03T07:47:16;33.10;18.00
9414;DHT22;4746;35.664;139.738;2023-04-03T07:49:44;32.70;17.80
9414;DHT22;4746;35.664;139.738;2023-04-03T07:52:12;32.60;18.20
9414;DHT22;4746;35.664;139.738;2023-04-03T07:54:42;32.50;18.00
9414;DHT22;4746;35.664;139.738;2023-04-03T07:57:09;32.30;18.10
9414;DHT22;4746;35.664;139.738;2023-04-03T07:59:38;31.80;18.30
9414;DHT22;4746;35.664;139.738;2023-04-03T08:02:09;31.50;18.50
9414;DHT22;4746;35.664;139.738;2023-04-03T08:04:38;30.70;18.60
9414;DHT22;4746;35.664;139.738;2023-04-03T08:07:05;30.00;19.10
9414;DHT22;4746;35.664;139.738;2023-04-03T08:09:33;29.10;20.10
9414;DHT22;4746;35.664;139.738;2023-04-03T08:12:01;28.10;20.40
9414;DHT22;4746;35.664;139.738;2023-04-03T08:14:31;27.20;20.80
9414;DHT22;4746;35.664;139.738;2023-04-03T08:17:00;26.30;21.70
9414;DHT22;4746;35.664;139.738;2023-04-03T08:19:30;25.50;22.10
9414;DHT22;4746;35.664;139.738;2023-04-03T08:21:58;24.90;22.90
9414;DHT22;4746;35.664;139.738;2023-04-03T08:24:27;24.20;23.20
9414;DHT22;4746;35.664;139.738;2023-04-03T08:26:54;23.70;23.60
9414;DHT22;4746;35.664;139.738;2023-04-03T08:29:22;23.30;24.10
9414;DHT22;4746;35.664;139.738;2023-04-03T08:31:51;22.90;24.50
9414;DHT22;4746;35.664;139.738;2023-04-03T08:34:19;22.40;24.80
9414;DHT22;4746;35.664;139.738;2023-04-03T08:36:47;22.10;25.10
9414;DHT22;4746;35.664;139.738;2023-04-03T08:39:15;21.50;25.50
9414;DHT22;4746;35.664;139.738;2023-04-03T08:41:44;21.00;26.10
9414;DHT22;4746;35.664;139.738;2023-04-03T08:44:31;20.80;26.50
9414;DHT22;4746;35.664;139.738;2023-04-03T08:50:04;20.10;27.10
9414;DHT22;4746;35.664;139.738;2023-04-03T08:52:41;19.70;28.00
9414;DHT22;4746;35.664;139.738;2023-04-03T08:55:36;19.50;28.40
9414;DHT22;4746;35.664;139.738;2023-04-03T08:58:12;19.20;29.00
9414;DHT22;4746;35.664;139.738;2023-04-03T09:03:18;18.70;29.00
9414;DHT22;4746;35.664;139.738;2023-04-03T09:06:00;18.50;29.90
9414;DHT22;4746;35.664;139.738;2023-04-03T09:14:53;17.90;31.50
9414;DHT22;4746;35.664;139.738;2023-04-03T09:23:22;17.50;32.70
9414;DHT22;4746;35.664;139.738;2023-04-03T09:26:01;17.30;32.60
9414;DHT22;4746;35.664;139.738;2023-04-03T09:28:37;17.10;32.60
9414;DHT22;4746;35.664;139.738;2023-04-03T09:33:51;16.80;33.50
9414;DHT22;4746;35.664;139.738;2023-04-03T09:36:46;16.70;33.40
9414;DHT22;4746;35.664;139.738;2023-04-03T09:39:19;16.50;33.70
9414;DHT22;4746;35.664;139.738;2023-04-03T09:42:01;16.40;34.70
9414;DHT22;4746;35.664;139.738;2023-04-03T09:44:37;16.40;34.10
9414;DHT22;4746;35.664;139.738;2023-04-03T09:47:28;16.30;35.00
9414;DHT22;4746;35.664;139.738;2023-04-03T09:52:42;16.10;34.60
9414;DHT22;4746;35.664;139.738;2023-04-03T09:55:18;16.00;34.60
9414;DHT22;4746;35.664;139.738;2023-04-03T09:58:02;16.00;34.70
9414;DHT22;4746;35.664;139.738;2023-04-03T10:00:37;15.90;35.20
9414;DHT22;4746;35.664;139.738;2023-04-03T10:03:25;15.80;35.80
9414;DHT22;4746;35.664;139.738;2023-04-03T10:05:58;15.80;36.90
9414;DHT22;4746;35.664;139.738;2023-04-03T10:08:32;15.70;37.40
9414;DHT22;4746;35.664;139.738;2023-04-03T10:11:16;15.60;37.70
9414;DHT22;4746;35.664;139.738;2023-04-03T10:14:02;15.60;38.40
9414;DHT22;4746;35.664;139.738;2023-04-03T10:16:56;15.60;39.40
9414;DHT22;4746;35.664;139.738;2023-04-03T10:20:03;15.60;40.00
9414;DHT22;4746;35.664;139.738;2023-04-03T10:31:33;15.20;45.90
9414;DHT22;4746;35.664;139.738;2023-04-03T10:34:31;15.20;46.80
9414;DHT22;4746;35.664;139.738;2023-04-03T10:45:31;14.90;55.20
9414;DHT22;4746;35.664;139.738;2023-04-03T10:48:28;14.80;55.90
9414;DHT22;4746;35.664;139.738;2023-04-03T10:59:39;14.70;76.30
9414;DHT22;4746;35.664;139.738;2023-04-03T11:02:49;14.60;79.10
9414;DHT22;4746;35.664;139.738;2023-04-03T11:05:39;14.70;79.50
9414;DHT22;4746;35.664;139.738;2023-04-03T11:08:29;14.70;78.60
9414;DHT22;4746;35.664;139.738;2023-04-03T11:11:13;14.60;82.10
9414;DHT22;4746;35.664;139.738;2023-04-03T11:16:27;14.50;85.00
9414;DHT22;4746;35.664;139.738;2023-04-03T11:22:10;14.50;90.80
9414;DHT22;4746;35.664;139.738;2023-04-03T11:24:43;14.50;90.30
9414;DHT22;4746;35.664;139.738;2023-04-03T11:27:23;14.50;89.70
9414;DHT22;4746;35.664;139.738;2023-04-03T11:29:53;14.50;90.80
9414;DHT22;4746;35.664;139.738;2023-04-03T11:35:09;14.40;91.60
9414;DHT22;4746;35.664;139.738;2023-04-03T11:37:50;14.40;91.10
9414;DHT22;4746;35.664;139.738;2023-04-03T11:40:24;14.40;91.40
9414;DHT22;4746;35.664;139.738;2023-04-03T11:43:17;14.40;91.80
9414;DHT22;4746;35.664;139.738;2023-04-03T11:45:55;14.40;91.70
9414;DHT22;4746;35.664;139.738;2023-04-03T11:50:59;14.40;92.50
9414;DHT22;4746;35.664;139.738;2023-04-03T11:53:47;14.40;92.30
9414;DHT22;4746;35.664;139.738;2023-04-03T12:04:13;14.30;93.00
9414;DHT22;4746;35.664;139.738;2023-04-03T12:09:27;14.30;92.50
9414;DHT22;4746;35.664;139.738;2023-04-03T12:12:01;14.30;93.90
9414;DHT22;4746;35.664;139.738;2023-04-03T12:21:10;14.20;92.60
9414;DHT22;4746;35.664;139.738;2023-04-03T12:30:21;14.10;93.60
9414;DHT22;4746;35.664;139.738;2023-04-03T12:33:12;14.10;93.70
9414;DHT22;4746;35.664;139.738;2023-04-03T12:45:22;14.00;96.70
9414;DHT22;4746;35.664;139.738;2023-04-03T12:47:54;14.00;96.60
9414;DHT22;4746;35.664;139.738;2023-04-03T12:50:32;14.00;96.70
9414;DHT22;4746;35.664;139.738;2023-04-03T12:53:06;13.90;98.10
9414;DHT22;4746;35.664;139.738;2023-04-03T12:55:47;13.90;98.70
9414;DHT22;4746;35.664;139.738;2023-04-03T12:58:27;13.80;99.90
9414;DHT22;4746;35.664;139.738;2023-04-03T13:01:18;13.80;99.90
9414;DHT22;4746;35.664;139.738;2023-04-03T13:03:56;13.80;99.90
9414;DHT22;4746;35.664;139.738;2023-04-03T13:06:39;13.80;99.90
9414;DHT22;4746;35.664;139.738;2023-04-03T13:09:24;13.80;99.90
9414;DHT22;4746;35.664;139.738;2023-04-03T13:12:10;13.80;99.90
9414;DHT22;4746;35.664;139.738;2023-04-03T13:14:40;13.70;99.90
9414;DHT22;4746;35.664;139.738;2023-04-03T13:17:20;13.70;99.90
9414;DHT22;4746;35.664;139.738;2023-04-03T13:19:48;13.70;99.90
9414;DHT22;4746;35.664;139.738;2023-04-03T13:25:15;13.70;99.90
9414;DHT22;4746;35.664;139.738;2023-04-03T13:27:46;13.60;99.90
9414;DHT22;4746;35.664;139.738;2023-04-03T13:32:57;13.60;99.90
9414;DHT22;4746;35.664;139.738;2023-04-03T13:35:41;13.50;99.90
9414;DHT22;4746;35.664;139.738;2023-04-03T13:40:58;13.50;99.90
9414;DHT22;4746;35.664;139.738;2023-04-03T13:43:45;13.40;99.90
9414;DHT22;4746;35.664;139.738;2023-04-03T13:48:43;13.40;99.90
9414;DHT22;4746;35.664;139.738;2023-04-03T13:53:58;13.50;99.90
9414;DHT22;4746;35.664;139.738;2023-04-03T13:56:35;13.50;99.90
9414;DHT22;4746;35.664;139.738;2023-04-03T14:01:47;13.50;99.90
9414;DHT22;4746;35.664;139.738;2023-04-03T14:04:45;13.50;99.90
9414;DHT22;4746;35.664;139.738;2023-04-03T14:07:16;13.50;99.90
9414;DHT22;4746;35.664;139.738;2023-04-03T14:09:46;13.50;99.90
9414;DHT22;4746;35.664;139.738;2023-04-03T14:12:35;13.60;99.90
9414;DHT22;4746;35.664;139.738;2023-04-03T14:15:27;13.60;99.90
9414;DHT22;4746;35.664;139.738;2023-04-03T14:17:58;13.60;99.90
9414;DHT22;4746;35.664;139.738;2023-04-03T14:20:26;13.60;99.90
9414;DHT22;4746;35.664;139.738;2023-04-03T14:22:54;13.60;99.90
9414;DHT22;4746;35.664;139.738;2023-04-03T14:25:24;13.60;99.90
9414;DHT22;4746;35.664;139.738;2023-04-03T14:27:53;13.50;99.90
9414;DHT22;4746;35.664;139.738;2023-04-03T14:30:31;13.50;99.90
9414;DHT22;4746;35.664;139.738;2023-04-03T14:33:00;13.50;99.90
9414;DHT22;4746;35.664;139.738;2023-04-03T14:35:28;13.50;99.90
9414;DHT22;4746;35.664;139.738;2023-04-03T14:37:56;13.50;99.90
9414;DHT22;4746;35.664;139.738;2023-04-03T14:40:26;13.50;99.90
9414;DHT22;4746;35.664;139.738;2023-04-03T14:42:54;13.40;99.90
9414;DHT22;4746;35.664;139.738;2023-04-03T14:45:24;13.40;99.90
9414;DHT22;4746;35.664;139.738;2023-04-03T14:47:54;13.40;99.90
9414;DHT22;4746;35.664;139.738;2023-04-03T14:50:25;13.40;99.90
9414;DHT22;4746;35.664;139.738;2023-04-03T14:52:58;13.30;99.90
9414;DHT22;4746;35.664;139.738;2023-04-03T14:55:27;13.30;99.90
9414;DHT22;4746;35.664;139.738;2023-04-03T14:57:56;13.30;99.90
9414;DHT22;4746;35.664;139.738;2023-04-03T15:00:24;13.30;99.90
9414;DHT22;4746;35.664;139.738;2023-04-03T15:02:51;13.20;99.90
9414;DHT22;4746;35.664;139.738;2023-04-03T15:05:19;13.20;99.90
9414;DHT22;4746;35.664;139.738;2023-04-03T15:07:53;13.20;99.90
9414;DHT22;4746;35.664;139.738;2023-04-03T15:10:26;13.20;99.90
9414;DHT22;4746;35.664;139.738;2023-04-03T15:12:56;13.20;99.90
9414;DHT22;4746;35.664;139.738;2023-04-03T15:15:24;13.20;99.90
9414;DHT22;4746;35.664;139.738;2023-04-03T15:17:57;13.20;99.90
9414;DHT22;4746;35.664;139.738;2023-04-03T15:20:26;13.20;99.90
9414;DHT22;4746;35.664;139.738;2023-04-03T15:22:56;13.20;99.90
9414;DHT22;4746;35.664;139.738;2023-04-03T15:25:27;13.20;99.90
9414;DHT22;4746;35.664;139.738;2023-04-03T15:27:56;13.10;99.90
9414;DHT22;4746;35.664;139.738;2023-04-03T15:30:25;13.10;99.90
9414;DHT22;4746;35.664;139.738;2023-04-03T15:32:52;13.10;99.90
9414;DHT22;4746;35.664;139.738;2023-04-03T15:35:20;13.10;99.90
9414;DHT22;4746;35.664;139.738;2023-04-03T15:37:47;13.10;99.90
9414;DHT22;4746;35.664;139.738;2023-04-03T15:40:15;13.10;99.90
9414;DHT22;4746;35.664;139.738;2023-04-03T15:42:43;13.20;99.90
9414;DHT22;4746;35.664;139.738;2023-04-03T15:45:10;13.20;99.90
9414;DHT22;4746;35.664;139.738;2023-04-03T15:47:38;13.20;99.90
9414;DHT22;4746;35.664;139.738;2023-04-03T15:50:06;13.20;99.90
9414;DHT22;4746;35.664;139.738;2023-04-03T15:52:35;13.20;99.90
9414;DHT22;4746;35.664;139.738;2023-04-03T15:55:06;13.20;99.90
9414;DHT22;4746;35.664;139.738;2023-04-03T15:57:33;13.20;99.90
9414;DHT22;4746;35.664;139.738;2023-04-03T16:00:01;13.20;99.90
9414;DHT22;4746;35.664;139.738;2023-04-03T16:02:29;13.20;99.90
9414;DHT22;4746;35.664;139.738;2023-04-03T16:04:57;13.20;99.90
9414;DHT22;4746;35.664;139.738;2023-04-03T16:07:25;13.20;99.90
9414;DHT22;4746;35.664;139.738;2023-04-03T16:09:53;13.20;99.90
9414;DHT22;4746;35.664;139.738;2023-04-03T16:12:20;13.20;99.90
9414;DHT22;4746;35.664;139.738;2023-04-03T16:14:48;13.20;99.90
9414;DHT22;4746;35.664;139.738;2023-04-03T16:17:16;13.20;99.90
9414;DHT22;4746;35.664;139.738;2023-04-03T16:19:43;13.20;99.90
9414;DHT22;4746;35.664;139.738;2023-04-03T16:22:11;13.10;99.90
9414;DHT22;4746;35.664;139.738;2023-04-03T16:24:39;13.10;99.90
9414;DHT22;4746;35.664;139.738;2023-04-03T16:27:06;13.10;99.90
9414;DHT22;4746;35.664;139.738;2023-04-03T16:29:34;13.10;99.90
9414;DHT22;4746;35.664;139.738;2023-04-03T16:32:02;13.10;99.90
9414;DHT22;4746;35.664;139.738;2023-04-03T16:34:30;13.10;99.90
9414;DHT22;4746;35.664;139.738;2023-04-03T16:36:59;13.00;99.90
9414;DHT22;4746;35.664;139.738;2023-04-03T16:39:27;13.00;99.90
9414;DHT22;4746;35.664;139.738;2023-04-03T16:41:54;12.90;99.90
9414;DHT22;4746;35.664;139.738;2023-04-03T16:44:21;12.90;99.90
9414;DHT22;4746;35.664;139.738;2023-04-03T16:46:49;12.90;99.90
9414;DHT22;4746;35.664;139.738;2023-04-03T16:49:17;12.90;99.90
9414;DHT22;4746;35.664;139.738;2023-04-03T16:51:44;12.90;99.90
9414;DHT22;4746;35.664;139.738;2023-04-03T16:54:12;12.90;99.90
9414;DHT22;4746;35.664;139.738;2023-04-03T16:56:40;12.90;99.90
9414;DHT22;4746;35.664;139.738;2023-04-03T16:59:08;12.80;99.90
9414;DHT22;4746;35.664;139.738;2023-04-03T17:01:35;12.80;99.90
9414;DHT22;4746;35.664;139.738;2023-04-03T17:04:03;12.80;99.90
9414;DHT22;4746;35.664;139.738;2023-04-03T17:06:31;12.80;99.90
9414;DHT22;4746;35.664;139.738;2023-04-03T17:08:58;12.80;99.90
9414;DHT22;4746;35.664;139.738;2023-04-03T17:11:29;12.80;99.90
9414;DHT22;4746;35.664;139.738;2023-04-03T17:13:58;12.80;99.90
9414;DHT22;4746;35.664;139.738;2023-04-03T17:16:26;12.80;99.90
9414;DHT22;4746;35.664;139.738;2023-04-03T17:18:55;12.80;99.90
9414;DHT22;4746;35.664;139.738;2023-04-03T17:21:22;12.90;99.90
9414;DHT22;4746;35.664;139.738;2023-04-03T17:23:54;12.80;99.90
9414;DHT22;4746;35.664;139.738;2023-04-03T17:26:26;12.80;99.90
9414;DHT22;4746;35.664;139.738;2023-04-03T17:28:53;12.90;99.90
9414;DHT22;4746;35.664;139.738;2023-04-03T17:31:22;12.90;99.90
9414;DHT22;4746;35.664;139.738;2023-04-03T17:33:50;12.90;99.90
9414;DHT22;4746;35.664;139.738;2023-04-03T17:36:17;12.80;99.90
9414;DHT22;4746;35.664;139.738;2023-04-03T17:38:45;12.80;99.90
9414;DHT22;4746;35.664;139.738;2023-04-03T17:41:14;12.80;99.90
9414;DHT22;4746;35.664;139.738;2023-04-03T17:43:41;12.70;99.90
9414;DHT22;4746;35.664;139.738;2023-04-03T17:46:09;12.70;99.90
9414;DHT22;4746;35.664;139.738;2023-04-03T17:48:39;12.70;99.90
9414;DHT22;4746;35.664;139.738;2023-04-03T17:51:15;12.60;99.90
9414;DHT22;4746;35.664;139.738;2023-04-03T17:53:47;12.60;99.90